createdAt,value
2019-01-06T00:02:25.082Z,87.31
2019-01-06T00:05:23.223Z,86.89
2019-01-06T00:08:08.720Z,83.76
2019-01-06T00:10:55.053Z,82.67
2019-01-06T00:13:54.396Z,82.55
2019-01-06T00:16:47.760Z,82.74
2019-01-06T00:19:36.129Z,82.39
2019-01-06T00:22:27.078Z,82.73
2019-01-06T00:25:19.805Z,81.95
2019-01-06T00:28:26.133Z,82.59
2019-01-06T00:31:19.158Z,82.65
2019-01-06T00:34:04.817Z,82.33
2019-01-06T00:36:51.562Z,82.27
2019-01-06T00:39:49.177Z,82.74
2019-01-06T00:42:39.017Z,82.66
2019-01-06T00:45:20.059Z,82.87
2019-01-06T00:48:05.288Z,83.01
2019-01-06T00:50:48.093Z,82.98
2019-01-06T00:53:39.071Z,82.62
2019-01-06T00:56:31.537Z,82.68
2019-01-06T00:59:19.085Z,82.84
2019-01-06T01:02:10.860Z,82.76
2019-01-06T01:05:10.447Z,83.37
2019-01-06T01:07:58.394Z,83.40
2019-01-06T01:10:45.757Z,83.75
2019-01-06T01:13:30.597Z,84.23
2019-01-06T01:16:23.852Z,84.68
2019-01-06T01:19:13.956Z,84.93
2019-01-06T01:22:05.312Z,85.21
2019-01-06T01:25:04.269Z,85.03
2019-01-06T01:27:49.962Z,85.00
2019-01-06T01:30:35.568Z,84.40
2019-01-06T01:33:29.064Z,84.64
2019-01-06T01:36:16.548Z,84.42
2019-01-06T01:39:03.924Z,84.15
2019-01-06T01:42:06.435Z,82.58
2019-01-06T01:44:55.454Z,78.49
2019-01-06T01:47:45.620Z,74.83
2019-01-06T01:50:32.991Z,73.80
2019-01-06T01:53:17.508Z,73.54
2019-01-06T01:56:03.400Z,73.74
2019-01-06T01:58:49.394Z,74.43
2019-01-06T02:01:51.768Z,73.89
2019-01-06T02:04:39.328Z,74.55
2019-01-06T02:07:35.573Z,75.46
2019-01-06T02:10:20.766Z,76.92
2019-01-06T02:13:10.925Z,77.60
2019-01-06T02:16:04.303Z,77.58
2019-01-06T02:18:47.990Z,77.77
2019-01-06T02:21:34.970Z,78.63
2019-01-06T02:24:19.845Z,78.85
2019-01-06T02:27:03.090Z,79.16
2019-01-06T02:29:58.985Z,79.37
2019-01-06T02:32:46.613Z,79.36
2019-01-06T02:35:32.344Z,79.24
2019-01-06T02:38:34.416Z,78.87
2019-01-06T02:41:21.762Z,78.97
2019-01-06T02:44:09.138Z,78.72
2019-01-06T02:47:05.525Z,78.12
2019-01-06T02:49:52.903Z,78.17
2019-01-06T02:52:38.607Z,78.35
2019-01-06T02:55:20.163Z,78.07
2019-01-06T02:58:05.748Z,78.07
2019-01-06T03:01:02.277Z,78.15
2019-01-06T03:03:44.246Z,78.07
2019-01-06T03:06:29.971Z,77.98
2019-01-06T03:09:17.316Z,77.07
2019-01-06T03:12:18.449Z,76.46
2019-01-06T03:15:11.829Z,75.01
2019-01-06T03:17:55.291Z,74.80
2019-01-06T03:20:40.817Z,74.83
2019-01-06T03:23:22.760Z,75.41
2019-01-06T03:26:18.766Z,75.88
2019-01-06T03:29:06.214Z,76.63
2019-01-06T03:31:53.804Z,78.54
2019-01-06T03:34:50.277Z,79.41
2019-01-06T03:37:38.880Z,79.68
2019-01-06T03:40:29.490Z,80.36
2019-01-06T03:43:26.936Z,80.88
2019-01-06T03:46:32.217Z,81.44
2019-01-06T03:49:20.206Z,82.25
2019-01-06T03:52:04.464Z,82.36
2019-01-06T03:55:09.834Z,82.60
2019-01-06T03:58:00.887Z,82.64
2019-01-06T04:01:06.524Z,83.92
2019-01-06T04:04:08.894Z,83.97
2019-01-06T04:06:54.870Z,84.15
2019-01-06T04:09:42.260Z,84.00
2019-01-06T04:12:40.900Z,84.44
2019-01-06T04:15:26.902Z,84.20
2019-01-06T04:18:12.929Z,84.07
2019-01-06T04:20:58.424Z,84.17
2019-01-06T04:23:49.498Z,83.97
2019-01-06T04:26:35.410Z,83.62
2019-01-06T04:29:25.792Z,83.64
2019-01-06T04:32:21.806Z,84.06
2019-01-06T04:35:11.912Z,84.30
2019-01-06T04:37:57.653Z,84.48
2019-01-06T04:40:48.027Z,84.08
2019-01-06T04:43:33.835Z,84.26
2019-01-06T04:46:19.791Z,84.15
2019-01-06T04:49:05.735Z,84.13
2019-01-06T04:51:51.993Z,84.06
2019-01-06T04:54:49.265Z,84.18
2019-01-06T04:57:35.059Z,83.84
2019-01-06T05:00:21.078Z,84.15
2019-01-06T05:03:26.618Z,84.17
2019-01-06T05:06:13.991Z,83.64
2019-01-06T05:09:01.335Z,83.57
2019-01-06T05:11:57.353Z,83.89
2019-01-06T05:14:53.627Z,83.70
2019-01-06T05:17:56.161Z,84.06
2019-01-06T05:20:41.919Z,84.45
2019-01-06T05:23:38.287Z,84.03
2019-01-06T05:26:24.028Z,83.65
2019-01-06T05:29:12.817Z,83.70
2019-01-06T05:31:59.686Z,83.59
2019-01-06T05:34:45.238Z,83.41
2019-01-06T05:37:31.233Z,83.33
2019-01-06T05:40:14.334Z,83.42
2019-01-06T05:43:00.379Z,83.65
2019-01-06T05:45:46.030Z,83.50
2019-01-06T05:48:32.022Z,83.36
2019-01-06T05:51:18.050Z,83.63
2019-01-06T05:54:04.162Z,84.08
2019-01-06T05:56:51.558Z,83.97
2019-01-06T05:59:33.886Z,84.05
2019-01-06T06:02:18.265Z,83.55
2019-01-06T06:05:20.354Z,83.29
2019-01-06T06:08:19.758Z,83.45
2019-01-06T06:11:09.880Z,83.74
2019-01-06T06:14:09.286Z,83.43
2019-01-06T06:17:12.374Z,83.49
2019-01-06T06:20:19.179Z,83.97
2019-01-06T06:23:06.540Z,83.62
2019-01-06T06:25:53.466Z,83.33
2019-01-06T06:28:49.729Z,83.06
2019-01-06T06:31:37.063Z,83.10
2019-01-06T06:34:27.440Z,83.66
2019-01-06T06:37:10.962Z,84.14
2019-01-06T06:39:49.825Z,83.99
2019-01-06T06:42:39.958Z,84.18
2019-01-06T06:45:22.387Z,84.12
2019-01-06T06:48:09.175Z,83.81
2019-01-06T06:51:09.949Z,83.59
2019-01-06T06:53:55.955Z,84.18
2019-01-06T06:56:55.257Z,84.64
2019-01-06T06:59:57.835Z,85.28
2019-01-06T07:03:09.589Z,85.25
2019-01-06T07:05:55.451Z,85.65
2019-01-06T07:08:41.175Z,85.19
2019-01-06T07:11:31.127Z,85.27
2019-01-06T07:14:24.347Z,84.96
2019-01-06T07:18:03.789Z,84.71
2019-01-06T07:20:57.025Z,84.48
2019-01-06T07:23:42.878Z,84.63
2019-01-06T07:26:30.283Z,84.32
2019-01-06T07:29:10.968Z,84.34
2019-01-06T07:32:16.461Z,84.31
2019-01-06T07:35:15.554Z,84.05
2019-01-06T07:38:05.580Z,83.74
2019-01-06T07:40:58.787Z,83.52
2019-01-06T07:43:48.952Z,83.16
2019-01-06T07:46:54.238Z,83.09
2019-01-06T07:49:37.646Z,82.70
2019-01-06T07:52:36.783Z,82.35
2019-01-06T07:55:42.398Z,82.65
2019-01-06T07:58:28.212Z,82.40
2019-01-06T08:01:14.393Z,82.82
2019-01-06T08:04:04.118Z,82.59
2019-01-06T08:06:49.869Z,82.64
2019-01-06T08:09:44.901Z,82.93
2019-01-06T08:12:44.200Z,82.19
2019-01-06T08:15:30.048Z,81.57
2019-01-06T08:18:20.441Z,80.91
2019-01-06T08:21:10.947Z,80.69
2019-01-06T08:23:58.505Z,80.09
2019-01-06T08:26:54.637Z,80.46
2019-01-06T08:29:40.407Z,80.64
2019-01-06T08:32:24.430Z,80.21
2019-01-06T08:35:10.191Z,79.85
2019-01-06T08:37:55.633Z,79.12
2019-01-06T08:40:49.837Z,77.56
2019-01-06T08:43:46.319Z,78.29
2019-01-06T08:46:51.633Z,77.72
2019-01-06T08:49:37.215Z,77.92
2019-01-06T08:52:27.473Z,77.99
2019-01-06T08:55:20.631Z,77.71
2019-01-06T08:58:13.877Z,77.83
2019-01-06T09:01:19.386Z,76.97
2019-01-06T09:04:24.735Z,76.38
2019-01-06T09:07:20.972Z,75.58
2019-01-06T09:10:10.819Z,75.65
2019-01-06T09:12:51.835Z,75.15
2019-01-06T09:15:37.738Z,74.66
2019-01-06T09:18:25.098Z,73.81
2019-01-06T09:21:24.370Z,73.35
2019-01-06T09:24:04.447Z,73.66
2019-01-06T09:26:56.240Z,73.01
2019-01-06T09:29:51.124Z,71.69
2019-01-06T09:32:50.046Z,70.99
2019-01-06T09:35:46.336Z,70.40
2019-01-06T09:38:42.649Z,69.32
2019-01-06T09:41:30.012Z,67.34
2019-01-06T09:44:20.806Z,66.63
2019-01-06T09:47:08.234Z,65.27
2019-01-06T09:49:58.668Z,64.21
2019-01-06T09:53:00.950Z,64.10
2019-01-06T09:55:46.747Z,65.22
2019-01-06T09:58:34.888Z,65.29
2019-01-06T10:01:28.572Z,64.59
2019-01-06T10:04:26.264Z,65.27
2019-01-06T10:07:13.528Z,65.36
2019-01-06T10:10:10.098Z,65.59
2019-01-06T10:12:53.436Z,66.03
2019-01-06T10:15:43.351Z,64.93
2019-01-06T10:18:26.315Z,66.16
2019-01-06T10:21:12.505Z,65.74
2019-01-06T10:23:55.407Z,66.33
2019-01-06T10:26:42.847Z,65.59
2019-01-06T10:29:30.823Z,64.93
2019-01-06T10:32:13.587Z,63.88
2019-01-06T10:35:00.985Z,62.38
2019-01-06T10:38:03.521Z,61.48
2019-01-06T10:40:53.701Z,61.46
2019-01-06T10:43:30.899Z,60.25
2019-01-06T10:46:27.438Z,59.94
2019-01-06T10:49:13.277Z,59.97
2019-01-06T10:51:59.540Z,60.77
2019-01-06T10:54:52.979Z,60.06
2019-01-06T10:57:52.310Z,59.70
2019-01-06T11:00:48.697Z,59.85
2019-01-06T11:03:45.418Z,61.05
2019-01-06T11:06:37.027Z,62.47
2019-01-06T11:09:23.883Z,62.06
2019-01-06T11:12:09.877Z,61.06
2019-01-06T11:15:00.446Z,61.54
2019-01-06T11:17:48.771Z,61.25
2019-01-06T11:20:30.634Z,60.86
2019-01-06T11:23:16.260Z,60.86
2019-01-06T11:26:02.420Z,60.26
2019-01-06T11:28:46.874Z,59.85
2019-01-06T11:31:32.799Z,58.14
2019-01-06T11:34:23.296Z,56.99
2019-01-06T11:37:08.212Z,55.98
2019-01-06T11:40:07.504Z,55.26
2019-01-06T11:42:57.679Z,56.00
2019-01-06T11:46:00.832Z,55.05
2019-01-06T11:48:48.984Z,55.59
2019-01-06T11:51:34.784Z,55.68
2019-01-06T11:54:20.311Z,57.41
2019-01-06T11:57:05.898Z,58.77
2019-01-06T11:59:51.335Z,58.76
2019-01-06T12:02:39.276Z,57.87
2019-01-06T12:05:31.658Z,57.43
2019-01-06T12:08:19.031Z,55.41
2019-01-06T12:11:05.073Z,54.58
2019-01-06T12:13:51.141Z,54.84
2019-01-06T12:16:44.205Z,55.84
2019-01-06T12:19:36.590Z,56.64
2019-01-06T12:22:22.187Z,58.21
2019-01-06T12:25:08.888Z,58.72
2019-01-06T12:28:02.520Z,59.00
2019-01-06T12:30:52.854Z,58.85
2019-01-06T12:33:38.532Z,59.46
2019-01-06T12:36:21.636Z,59.97
2019-01-06T12:39:21.143Z,60.54
2019-01-06T12:42:17.504Z,61.25
2019-01-06T12:45:19.859Z,61.94
2019-01-06T12:48:16.315Z,60.90
2019-01-06T12:51:21.685Z,61.10
2019-01-06T12:54:01.077Z,62.32
2019-01-06T12:56:48.461Z,61.72
2019-01-06T12:59:49.904Z,60.90
2019-01-06T13:02:32.658Z,59.53
2019-01-06T13:05:22.931Z,59.73
2019-01-06T13:08:01.307Z,60.63
2019-01-06T13:10:54.601Z,59.15
2019-01-06T13:13:59.752Z,59.96
2019-01-06T13:16:45.807Z,60.51
2019-01-06T13:19:31.705Z,59.75
2019-01-06T13:22:21.850Z,59.65
2019-01-06T13:25:03.655Z,60.11
2019-01-06T13:27:51.652Z,60.53
2019-01-06T13:30:29.484Z,61.00
2019-01-06T13:33:41.803Z,60.89
2019-01-06T13:36:30.282Z,60.38
2019-01-06T13:39:27.516Z,60.64
2019-01-06T13:42:17.181Z,60.87
2019-01-06T13:45:13.779Z,60.40
2019-01-06T13:47:57.675Z,60.01
2019-01-06T13:50:43.722Z,61.41
2019-01-06T13:53:42.640Z,61.52
2019-01-06T13:56:26.666Z,61.78
2019-01-06T13:59:13.042Z,61.85
2019-01-06T14:02:09.792Z,62.63
2019-01-06T14:04:59.812Z,63.65
2019-01-06T14:08:23.262Z,65.00
2019-01-06T14:11:09.136Z,66.67
2019-01-06T14:13:56.555Z,67.50
2019-01-06T14:17:10.112Z,68.27
2019-01-06T14:20:16.615Z,68.61
2019-01-06T14:23:16.450Z,69.44
2019-01-06T14:26:03.133Z,70.31
2019-01-06T14:28:56.361Z,70.53
2019-01-06T14:32:06.224Z,70.68
2019-01-06T14:35:08.312Z,71.48
2019-01-06T14:38:27.075Z,71.73
2019-01-06T14:41:16.010Z,71.95
2019-01-06T14:44:11.493Z,71.98
2019-01-06T14:47:15.644Z,72.13
2019-01-06T14:50:11.877Z,72.36
2019-01-06T14:53:11.695Z,72.34
2019-01-06T14:56:25.494Z,72.36
2019-01-06T14:59:15.457Z,72.67
2019-01-06T15:02:01.325Z,72.73
2019-01-06T15:04:54.564Z,72.72
2019-01-06T15:07:44.804Z,73.06
2019-01-06T15:10:32.177Z,73.28
2019-01-06T15:13:25.589Z,73.37
2019-01-06T15:16:12.958Z,73.22
2019-01-06T15:19:00.274Z,73.50
2019-01-06T15:21:52.851Z,73.60
2019-01-06T15:24:43.093Z,73.62
2019-01-06T15:27:28.116Z,73.82
2019-01-06T15:30:18.240Z,73.43
2019-01-06T15:33:23.370Z,73.61
2019-01-06T15:36:23.644Z,74.61
2019-01-06T15:39:12.858Z,75.01
2019-01-06T15:42:17.731Z,74.87
2019-01-06T15:45:08.152Z,75.04
2019-01-06T15:47:59.521Z,75.15
2019-01-06T15:50:55.975Z,75.31
2019-01-06T15:53:55.086Z,75.20
2019-01-06T15:56:45.514Z,75.44
2019-01-06T15:59:48.078Z,75.50
2019-01-06T16:02:44.635Z,75.98
2019-01-06T16:05:30.557Z,75.79
2019-01-06T16:08:16.634Z,75.56
2019-01-06T16:11:12.986Z,75.49
2019-01-06T16:13:59.307Z,75.04
2019-01-06T16:16:44.852Z,74.78
2019-01-06T16:19:46.664Z,74.94
2019-01-06T16:22:32.406Z,75.14
2019-01-06T16:25:17.983Z,75.16
2019-01-06T16:28:23.485Z,75.73
2019-01-06T16:31:09.448Z,76.21
2019-01-06T16:33:48.499Z,76.67
2019-01-06T16:36:38.684Z,77.06
2019-01-06T16:39:37.673Z,76.92
2019-01-06T16:42:27.851Z,77.14
2019-01-06T16:45:13.637Z,77.50
2019-01-06T16:48:10.148Z,77.56
2019-01-06T16:50:54.338Z,78.50
2019-01-06T16:54:06.797Z,78.50
2019-01-06T16:57:12.052Z,78.16
2019-01-06T16:59:59.139Z,78.41
2019-01-06T17:02:45.017Z,78.56
2019-01-06T17:05:44.285Z,78.75
2019-01-06T17:08:30.261Z,78.27
2019-01-06T17:11:30.115Z,78.28
2019-01-06T17:14:16.117Z,78.44
2019-01-06T17:17:00.005Z,78.29
2019-01-06T17:19:38.979Z,78.62
2019-01-06T17:22:38.275Z,78.48
2019-01-06T17:25:34.550Z,79.04
2019-01-06T17:28:38.584Z,79.35
2019-01-06T17:31:28.711Z,79.57
2019-01-06T17:34:25.466Z,79.62
2019-01-06T17:37:12.359Z,79.79
2019-01-06T17:40:01.156Z,79.96
2019-01-06T17:42:50.216Z,80.07
2019-01-06T17:45:42.552Z,79.72
2019-01-06T17:48:28.558Z,79.14
2019-01-06T17:51:14.651Z,79.25
2019-01-06T17:54:14.222Z,79.78
2019-01-06T17:57:05.840Z,80.38
2019-01-06T17:59:55.765Z,80.46
2019-01-06T18:02:52.279Z,80.97
2019-01-06T18:05:35.500Z,81.16
2019-01-06T18:08:29.153Z,81.40
2019-01-06T18:11:15.410Z,81.97
2019-01-06T18:14:01.414Z,82.09
2019-01-06T18:16:45.830Z,81.92
2019-01-06T18:19:43.885Z,81.78
2019-01-06T18:22:36.170Z,81.34
2019-01-06T18:25:12.298Z,81.17
2019-01-06T18:27:58.142Z,81.02
2019-01-06T18:30:52.061Z,81.08
2019-01-06T18:33:39.459Z,81.00
2019-01-06T18:36:25.534Z,81.19
2019-01-06T18:39:22.784Z,81.08
2019-01-06T18:42:28.068Z,81.13
2019-01-06T18:45:13.776Z,81.13
2019-01-06T18:47:59.662Z,81.01
2019-01-06T18:50:41.253Z,80.80
2019-01-06T18:53:25.243Z,80.50
2019-01-06T18:56:07.907Z,80.34
2019-01-06T18:58:54.025Z,80.40
2019-01-06T19:01:36.621Z,80.28
2019-01-06T19:04:27.395Z,80.53
2019-01-06T19:07:29.210Z,79.97
2019-01-06T19:10:29.260Z,79.68
2019-01-06T19:13:15.681Z,80.34
2019-01-06T19:15:51.892Z,80.57
2019-01-06T19:18:41.530Z,80.94
2019-01-06T19:22:13.985Z,80.93
2019-01-06T19:25:13.338Z,81.06
2019-01-06T19:27:59.313Z,80.82
2019-01-06T19:30:42.065Z,80.73
2019-01-06T19:33:27.565Z,81.39
2019-01-06T19:36:23.554Z,82.76
2019-01-06T19:39:09.285Z,84.20
2019-01-06T19:42:11.207Z,85.52
2019-01-06T19:44:56.928Z,86.68
2019-01-06T19:47:38.284Z,87.26
2019-01-06T19:50:28.408Z,88.21
2019-01-06T19:53:18.534Z,87.41
2019-01-06T19:56:14.908Z,87.18
2019-01-06T19:59:17.235Z,87.22
2019-01-06T20:02:02.993Z,87.08
2019-01-06T20:04:59.568Z,87.01
2019-01-06T20:07:45.320Z,87.04
2019-01-06T20:10:43.320Z,88.65
2019-01-06T20:13:30.807Z,89.50
2019-01-06T20:16:30.142Z,90.07
2019-01-06T20:19:16.124Z,90.23
2019-01-06T20:22:01.714Z,90.38
2019-01-06T20:24:42.846Z,90.41
2019-01-06T20:27:30.643Z,90.69
2019-01-06T20:30:16.184Z,91.09
2019-01-06T20:33:09.562Z,90.51
2019-01-06T20:35:54.618Z,90.41
2019-01-06T20:38:43.520Z,89.48
2019-01-06T20:41:42.900Z,89.28
2019-01-06T20:44:28.673Z,88.93
2019-01-06T20:47:30.749Z,89.03
2019-01-06T20:50:16.433Z,88.73
2019-01-06T20:53:06.597Z,88.96
2019-01-06T20:55:53.973Z,89.27
2019-01-06T20:58:39.723Z,89.63
2019-01-06T21:01:30.089Z,89.94
2019-01-06T21:04:07.573Z,89.77
2019-01-06T21:06:49.399Z,90.00
2019-01-06T21:09:35.174Z,89.80
2019-01-06T21:12:21.360Z,90.39
2019-01-06T21:15:08.241Z,89.73
2019-01-06T21:17:56.133Z,89.37
2019-01-06T21:20:54.684Z,89.35
2019-01-06T21:23:53.998Z,88.35
2019-01-06T21:26:39.763Z,87.79
2019-01-06T21:29:27.181Z,87.76
2019-01-06T21:32:20.271Z,87.89
2019-01-06T21:35:05.761Z,87.86
2019-01-06T21:37:53.116Z,88.05
2019-01-06T21:40:38.958Z,88.04
2019-01-06T21:43:24.889Z,88.06
2019-01-06T21:46:10.364Z,88.09
2019-01-06T21:48:56.358Z,87.99
2019-01-06T21:51:45.150Z,88.52
2019-01-06T21:54:30.900Z,88.36
2019-01-06T21:57:21.434Z,88.32
2019-01-06T22:00:11.583Z,88.64
2019-01-06T22:02:59.028Z,88.46
2019-01-06T22:05:45.014Z,88.28
2019-01-06T22:08:18.492Z,88.06
2019-01-06T22:11:04.566Z,87.70
2019-01-06T22:13:51.971Z,87.48
2019-01-06T22:16:31.878Z,87.34
2019-01-06T22:19:17.846Z,87.74
2019-01-06T22:22:03.432Z,87.97
2019-01-06T22:24:49.067Z,88.20
2019-01-06T22:27:36.435Z,87.73
2019-01-06T22:30:33.543Z,87.41
2019-01-06T22:33:29.696Z,87.33
2019-01-06T22:36:35.201Z,87.83
2019-01-06T22:39:24.698Z,87.60
2019-01-06T22:42:14.840Z,87.34
2019-01-06T22:45:02.225Z,87.44
2019-01-06T22:47:58.544Z,87.63
2019-01-06T22:50:57.805Z,87.42
2019-01-06T22:53:43.495Z,87.31
2019-01-06T22:56:29.549Z,87.81
2019-01-06T22:59:15.679Z,87.72
2019-01-06T23:02:15.165Z,87.14
2019-01-06T23:05:08.512Z,87.45
2019-01-06T23:07:54.311Z,87.74
2019-01-06T23:10:41.739Z,87.76
2019-01-06T23:13:29.904Z,87.78
2019-01-06T23:16:17.295Z,87.69
2019-01-06T23:19:16.556Z,87.52
2019-01-06T23:22:02.319Z,87.48
2019-01-06T23:24:48.533Z,87.88
2019-01-06T23:27:41.953Z,87.84
2019-01-06T23:30:27.737Z,87.92
2019-01-06T23:33:13.225Z,87.92
2019-01-06T23:35:51.605Z,87.90
2019-01-06T23:38:56.892Z,87.92
2019-01-06T23:41:46.849Z,88.43
2019-01-06T23:44:32.828Z,88.34
2019-01-06T23:47:13.888Z,88.77
2019-01-06T23:50:10.144Z,88.91
2019-01-06T23:52:57.791Z,88.49
2019-01-06T23:55:53.061Z,88.76
2019-01-06T23:58:49.368Z,88.75
